sensor_id;sensor_type;location;lat;lon;timestamp;P1;durP1;ratioP1;P2;durP2;ratioP2
577;SDS011;275;48.492;9.214;2023-04-24T00:01:59;3.10;;;1.23;;
577;SDS011;275;48.492;9.214;2023-04-24T00:04:25;2.10;;;0.80;;
577;SDS011;275;48.492;9.214;2023-04-24T00:06:52;2.43;;;0.70;;
577;SDS011;275;48.492;9.214;2023-04-24T00:09:22;4.00;;;0.90;;
577;SDS011;275;48.492;9.214;2023-04-24T00:11:49;3.37;;;1.10;;
577;SDS011;275;48.492;9.214;2023-04-24T00:14:15;2.73;;;0.90;;
577;SDS011;275;48.492;9.214;2023-04-24T00:16:44;2.30;;;0.90;;
577;SDS011;275;48.492;9.214;2023-04-24T00:19:10;2.40;;;0.80;;
577;SDS011;275;48.492;9.214;2023-04-24T00:21:38;2.70;;;0.90;;
577;SDS011;275;48.492;9.214;2023-04-24T00:24:04;3.43;;;0.90;;
577;SDS011;275;48.492;9.214;2023-04-24T00:26:33;2.67;;;1.10;;
577;SDS011;275;48.492;9.214;2023-04-24T00:29:00;4.43;;;0.90;;
577;SDS011;275;48.492;9.214;2023-04-24T00:31:27;4.20;;;1.10;;
577;SDS011;275;48.492;9.214;2023-04-24T00:33:55;2.97;;;0.77;;
577;SDS011;275;48.492;9.214;2023-04-24T00:36:22;2.23;;;0.77;;
577;SDS011;275;48.492;9.214;2023-04-24T00:38:50;2.70;;;1.00;;
577;SDS011;275;48.492;9.214;2023-04-24T00:41:16;2.90;;;0.93;;
577;SDS011;275;48.492;9.214;2023-04-24T00:43:44;4.80;;;1.27;;
577;SDS011;275;48.492;9.214;2023-04-24T00:46:10;2.37;;;0.83;;
577;SDS011;275;48.492;9.214;2023-04-24T00:48:38;2.50;;;0.70;;
577;SDS011;275;48.492;9.214;2023-04-24T00:51:07;2.30;;;0.77;;
577;SDS011;275;48.492;9.214;2023-04-24T00:53:33;2.27;;;0.80;;
577;SDS011;275;48.492;9.214;2023-04-24T00:56:01;2.20;;;0.80;;
577;SDS011;275;48.492;9.214;2023-04-24T00:58:28;2.20;;;0.70;;
577;SDS011;275;48.492;9.214;2023-04-24T01:00:55;2.47;;;0.97;;
577;SDS011;275;48.492;9.214;2023-04-24T01:03:24;3.33;;;1.20;;
577;SDS011;275;48.492;9.214;2023-04-24T01:05:54;3.30;;;1.03;;
577;SDS011;275;48.492;9.214;2023-04-24T01:08:23;2.50;;;0.80;;
577;SDS011;275;48.492;9.214;2023-04-24T01:10:50;2.70;;;0.80;;
577;SDS011;275;48.492;9.214;2023-04-24T01:13:18;2.50;;;1.00;;
577;SDS011;275;48.492;9.214;2023-04-24T01:15:46;3.90;;;0.90;;
577;SDS011;275;48.492;9.214;2023-04-24T01:18:13;2.43;;;0.87;;
577;SDS011;275;48.492;9.214;2023-04-24T01:20:41;2.93;;;0.90;;
577;SDS011;275;48.492;9.214;2023-04-24T01:23:11;3.30;;;0.90;;
577;SDS011;275;48.492;9.214;2023-04-24T01:25:38;2.70;;;0.90;;
577;SDS011;275;48.492;9.214;2023-04-24T01:28:05;2.20;;;0.80;;
577;SDS011;275;48.492;9.214;2023-04-24T01:30:32;2.40;;;1.00;;
577;SDS011;275;48.492;9.214;2023-04-24T01:32:59;3.57;;;1.03;;
577;SDS011;275;48.492;9.214;2023-04-24T01:35:26;2.90;;;1.00;;
577;SDS011;275;48.492;9.214;2023-04-24T01:37:53;3.07;;;1.20;;
577;SDS011;275;48.492;9.214;2023-04-24T01:40:21;2.70;;;1.20;;
577;SDS011;275;48.492;9.214;2023-04-24T01:42:48;4.70;;;1.40;;
577;SDS011;275;48.492;9.214;2023-04-24T01:45:15;3.50;;;1.30;;
577;SDS011;275;48.492;9.214;2023-04-24T01:47:42;2.73;;;1.00;;
577;SDS011;275;48.492;9.214;2023-04-24T01:50:11;3.13;;;1.43;;
577;SDS011;275;48.492;9.214;2023-04-24T01:52:38;3.50;;;1.10;;
577;SDS011;275;48.492;9.214;2023-04-24T01:55:05;2.20;;;0.90;;
577;SDS011;275;48.492;9.214;2023-04-24T01:57:34;2.73;;;1.10;;
577;SDS011;275;48.492;9.214;2023-04-24T02:00:02;3.53;;;1.10;;
577;SDS011;275;48.492;9.214;2023-04-24T02:02:30;2.67;;;1.07;;
577;SDS011;275;48.492;9.214;2023-04-24T02:04:57;2.70;;;0.93;;
577;SDS011;275;48.492;9.214;2023-04-24T02:07:24;2.60;;;1.20;;
577;SDS011;275;48.492;9.214;2023-04-24T02:09:51;3.03;;;1.10;;
577;SDS011;275;48.492;9.214;2023-04-24T02:12:18;2.57;;;1.20;;
577;SDS011;275;48.492;9.214;2023-04-24T02:14:46;2.30;;;1.03;;
577;SDS011;275;48.492;9.214;2023-04-24T02:17:13;4.50;;;1.30;;
577;SDS011;275;48.492;9.214;2023-04-24T02:19:41;3.53;;;1.27;;
577;SDS011;275;48.492;9.214;2023-04-24T02:22:08;2.63;;;1.17;;
577;SDS011;275;48.492;9.214;2023-04-24T02:24:35;3.63;;;1.47;;
577;SDS011;275;48.492;9.214;2023-04-24T02:27:02;3.03;;;1.20;;
577;SDS011;275;48.492;9.214;2023-04-24T02:29:29;2.50;;;1.03;;
577;SDS011;275;48.492;9.214;2023-04-24T02:31:57;2.50;;;0.93;;
577;SDS011;275;48.492;9.214;2023-04-24T02:34:24;3.00;;;1.30;;
577;SDS011;275;48.492;9.214;2023-04-24T02:36:51;3.00;;;1.20;;
577;SDS011;275;48.492;9.214;2023-04-24T02:39:18;2.80;;;1.10;;
577;SDS011;275;48.492;9.214;2023-04-24T02:41:45;4.17;;;1.40;;
577;SDS011;275;48.492;9.214;2023-04-24T02:44:12;3.37;;;1.50;;
577;SDS011;275;48.492;9.214;2023-04-24T02:46:39;3.90;;;1.00;;
577;SDS011;275;48.492;9.214;2023-04-24T02:49:08;2.40;;;1.30;;
577;SDS011;275;48.492;9.214;2023-04-24T02:51:36;2.70;;;1.00;;
577;SDS011;275;48.492;9.214;2023-04-24T02:54:06;3.73;;;1.27;;
577;SDS011;275;48.492;9.214;2023-04-24T02:56:33;2.72;;;1.05;;
577;SDS011;275;48.492;9.214;2023-04-24T02:59:00;3.23;;;1.03;;
577;SDS011;275;48.492;9.214;2023-04-24T03:01:26;3.43;;;1.20;;
577;SDS011;275;48.492;9.214;2023-04-24T03:03:53;2.03;;;0.85;;
577;SDS011;275;48.492;9.214;2023-04-24T03:06:21;2.60;;;1.20;;
577;SDS011;275;48.492;9.214;2023-04-24T03:08:48;3.20;;;1.33;;
577;SDS011;275;48.492;9.214;2023-04-24T03:11:15;7.63;;;1.50;;
577;SDS011;275;48.492;9.214;2023-04-24T03:13:42;3.20;;;1.07;;
577;SDS011;275;48.492;9.214;2023-04-24T03:16:08;3.40;;;1.40;;
577;SDS011;275;48.492;9.214;2023-04-24T03:18:35;2.87;;;1.10;;
577;SDS011;275;48.492;9.214;2023-04-24T03:21:02;3.17;;;1.30;;
577;SDS011;275;48.492;9.214;2023-04-24T03:23:30;4.05;;;1.10;;
577;SDS011;275;48.492;9.214;2023-04-24T03:25:57;4.43;;;1.20;;
577;SDS011;275;48.492;9.214;2023-04-24T03:28:24;3.92;;;1.50;;
577;SDS011;275;48.492;9.214;2023-04-24T03:30:51;3.65;;;1.38;;
577;SDS011;275;48.492;9.214;2023-04-24T03:33:18;4.35;;;1.50;;
577;SDS011;275;48.492;9.214;2023-04-24T03:35:45;3.30;;;1.60;;
577;SDS011;275;48.492;9.214;2023-04-24T03:38:12;2.08;;;0.90;;
577;SDS011;275;48.492;9.214;2023-04-24T03:40:40;2.78;;;1.20;;
577;SDS011;275;48.492;9.214;2023-04-24T03:43:07;2.28;;;1.00;;
577;SDS011;275;48.492;9.214;2023-04-24T03:45:34;2.85;;;1.13;;
577;SDS011;275;48.492;9.214;2023-04-24T03:48:00;2.70;;;1.20;;
577;SDS011;275;48.492;9.214;2023-04-24T03:50:27;2.53;;;0.80;;
577;SDS011;275;48.492;9.214;2023-04-24T03:52:54;2.50;;;1.13;;
577;SDS011;275;48.492;9.214;2023-04-24T03:55:21;2.80;;;1.08;;
577;SDS011;275;48.492;9.214;2023-04-24T03:57:49;2.60;;;1.30;;
577;SDS011;275;48.492;9.214;2023-04-24T04:00:16;2.78;;;1.10;;
577;SDS011;275;48.492;9.214;2023-04-24T04:02:43;4.80;;;1.75;;
577;SDS011;275;48.492;9.214;2023-04-24T04:05:10;3.58;;;1.35;;
577;SDS011;275;48.492;9.214;2023-04-24T04:07:37;3.13;;;1.27;;
577;SDS011;275;48.492;9.214;2023-04-24T04:10:04;5.30;;;1.30;;
577;SDS011;275;48.492;9.214;2023-04-24T04:12:32;6.40;;;1.50;;
577;SDS011;275;48.492;9.214;2023-04-24T04:15:00;3.10;;;1.00;;
577;SDS011;275;48.492;9.214;2023-04-24T04:17:27;3.45;;;1.20;;
577;SDS011;275;48.492;9.214;2023-04-24T04:19:53;3.15;;;1.38;;
577;SDS011;275;48.492;9.214;2023-04-24T04:22:21;2.80;;;1.35;;
577;SDS011;275;48.492;9.214;2023-04-24T04:24:48;3.00;;;1.20;;
577;SDS011;275;48.492;9.214;2023-04-24T04:27:16;4.80;;;1.58;;
577;SDS011;275;48.492;9.214;2023-04-24T04:29:43;3.05;;;1.90;;
577;SDS011;275;48.492;9.214;2023-04-24T04:32:12;3.00;;;1.50;;
577;SDS011;275;48.492;9.214;2023-04-24T04:34:38;3.13;;;1.50;;
577;SDS011;275;48.492;9.214;2023-04-24T04:37:05;3.60;;;1.85;;
577;SDS011;275;48.492;9.214;2023-04-24T04:39:32;3.53;;;1.92;;
577;SDS011;275;48.492;9.214;2023-04-24T04:41:59;2.80;;;1.38;;
577;SDS011;275;48.492;9.214;2023-04-24T04:44:26;3.80;;;1.95;;
577;SDS011;275;48.492;9.214;2023-04-24T04:46:53;3.08;;;1.70;;
577;SDS011;275;48.492;9.214;2023-04-24T04:49:22;4.03;;;2.00;;
577;SDS011;275;48.492;9.214;2023-04-24T04:51:49;3.13;;;1.27;;
577;SDS011;275;48.492;9.214;2023-04-24T04:54:17;3.20;;;1.70;;
577;SDS011;275;48.492;9.214;2023-04-24T04:56:43;4.18;;;1.80;;
577;SDS011;275;48.492;9.214;2023-04-24T04:59:10;4.57;;;1.90;;
577;SDS011;275;48.492;9.214;2023-04-24T05:01:37;5.38;;;2.67;;
577;SDS011;275;48.492;9.214;2023-04-24T05:04:05;4.30;;;1.70;;
577;SDS011;275;48.492;9.214;2023-04-24T05:06:33;3.53;;;1.83;;
577;SDS011;275;48.492;9.214;2023-04-24T05:09:00;3.30;;;1.80;;
577;SDS011;275;48.492;9.214;2023-04-24T05:11:28;3.92;;;2.58;;
577;SDS011;275;48.492;9.214;2023-04-24T05:13:55;4.07;;;2.83;;
577;SDS011;275;48.492;9.214;2023-04-24T05:16:22;4.65;;;2.60;;
577;SDS011;275;48.492;9.214;2023-04-24T05:18:49;3.88;;;2.75;;
577;SDS011;275;48.492;9.214;2023-04-24T05:21:15;5.03;;;2.40;;
577;SDS011;275;48.492;9.214;2023-04-24T05:23:44;3.50;;;2.20;;
577;SDS011;275;48.492;9.214;2023-04-24T05:26:10;4.35;;;2.67;;
577;SDS011;275;48.492;9.214;2023-04-24T05:28:37;2.70;;;1.73;;
577;SDS011;275;48.492;9.214;2023-04-24T05:31:04;2.92;;;1.83;;
577;SDS011;275;48.492;9.214;2023-04-24T05:33:31;2.33;;;1.75;;
577;SDS011;275;48.492;9.214;2023-04-24T05:35:58;2.95;;;2.15;;
577;SDS011;275;48.492;9.214;2023-04-24T05:38:25;4.15;;;2.30;;
577;SDS011;275;48.492;9.214;2023-04-24T05:40:53;3.28;;;2.08;;
577;SDS011;275;48.492;9.214;2023-04-24T05:43:20;2.85;;;2.10;;
577;SDS011;275;48.492;9.214;2023-04-24T05:45:46;3.75;;;2.55;;
577;SDS011;275;48.492;9.214;2023-04-24T05:48:13;3.60;;;2.25;;
577;SDS011;275;48.492;9.214;2023-04-24T05:50:40;4.22;;;2.40;;
577;SDS011;275;48.492;9.214;2023-04-24T05:53:07;3.95;;;2.53;;
577;SDS011;275;48.492;9.214;2023-04-24T05:55:35;3.30;;;2.78;;
577;SDS011;275;48.492;9.214;2023-04-24T05:58:04;3.40;;;2.17;;
577;SDS011;275;48.492;9.214;2023-04-24T06:00:30;3.35;;;2.20;;
577;SDS011;275;48.492;9.214;2023-04-24T06:02:57;3.00;;;2.10;;
577;SDS011;275;48.492;9.214;2023-04-24T06:05:25;3.60;;;2.90;;
577;SDS011;275;48.492;9.214;2023-04-24T06:07:52;3.47;;;2.10;;
577;SDS011;275;48.492;9.214;2023-04-24T06:10:19;4.63;;;2.70;;
577;SDS011;275;48.492;9.214;2023-04-24T06:12:46;3.97;;;2.65;;
577;SDS011;275;48.492;9.214;2023-04-24T06:15:14;3.55;;;2.20;;
577;SDS011;275;48.492;9.214;2023-04-24T06:17:41;4.07;;;2.17;;
577;SDS011;275;48.492;9.214;2023-04-24T06:20:08;3.90;;;2.33;;
577;SDS011;275;48.492;9.214;2023-04-24T06:22:36;3.35;;;2.50;;
577;SDS011;275;48.492;9.214;2023-04-24T06:25:05;3.20;;;2.20;;
577;SDS011;275;48.492;9.214;2023-04-24T06:27:32;3.58;;;2.13;;
577;SDS011;275;48.492;9.214;2023-04-24T06:29:59;4.80;;;2.28;;
577;SDS011;275;48.492;9.214;2023-04-24T06:32:27;3.15;;;2.33;;
577;SDS011;275;48.492;9.214;2023-04-24T06:34:55;3.25;;;1.83;;
577;SDS011;275;48.492;9.214;2023-04-24T06:37:22;2.80;;;2.00;;
577;SDS011;275;48.492;9.214;2023-04-24T06:39:49;3.75;;;2.60;;
577;SDS011;275;48.492;9.214;2023-04-24T06:42:16;3.10;;;2.10;;
577;SDS011;275;48.492;9.214;2023-04-24T06:44:45;3.20;;;2.40;;
577;SDS011;275;48.492;9.214;2023-04-24T06:47:12;2.90;;;1.88;;
577;SDS011;275;48.492;9.214;2023-04-24T06:49:41;3.65;;;2.40;;
577;SDS011;275;48.492;9.214;2023-04-24T06:52:08;4.53;;;2.45;;
577;SDS011;275;48.492;9.214;2023-04-24T06:54:35;4.78;;;2.50;;
577;SDS011;275;48.492;9.214;2023-04-24T06:57:01;4.10;;;2.40;;
577;SDS011;275;48.492;9.214;2023-04-24T06:59:28;3.70;;;2.72;;
577;SDS011;275;48.492;9.214;2023-04-24T07:01:56;3.50;;;1.92;;
577;SDS011;275;48.492;9.214;2023-04-24T07:04:23;3.40;;;2.20;;
577;SDS011;275;48.492;9.214;2023-04-24T07:06:51;3.53;;;2.35;;
577;SDS011;275;48.492;9.214;2023-04-24T07:09:20;3.20;;;2.30;;
577;SDS011;275;48.492;9.214;2023-04-24T07:11:48;3.58;;;2.30;;
577;SDS011;275;48.492;9.214;2023-04-24T07:14:15;3.03;;;2.07;;
577;SDS011;275;48.492;9.214;2023-04-24T07:16:42;3.60;;;2.40;;
577;SDS011;275;48.492;9.214;2023-04-24T07:19:10;3.23;;;2.57;;
577;SDS011;275;48.492;9.214;2023-04-24T07:21:37;3.20;;;2.40;;
577;SDS011;275;48.492;9.214;2023-04-24T07:24:05;3.13;;;1.80;;
577;SDS011;275;48.492;9.214;2023-04-24T07:26:34;7.40;;;2.00;;
577;SDS011;275;48.492;9.214;2023-04-24T07:29:01;4.20;;;2.17;;
577;SDS011;275;48.492;9.214;2023-04-24T07:31:28;3.40;;;2.40;;
577;SDS011;275;48.492;9.214;2023-04-24T07:33:55;4.60;;;2.40;;
577;SDS011;275;48.492;9.214;2023-04-24T07:36:23;3.87;;;2.70;;
577;SDS011;275;48.492;9.214;2023-04-24T07:38:51;3.87;;;2.80;;
577;SDS011;275;48.492;9.214;2023-04-24T07:41:19;4.63;;;2.90;;
577;SDS011;275;48.492;9.214;2023-04-24T07:43:46;2.75;;;2.40;;
577;SDS011;275;48.492;9.214;2023-04-24T07:46:13;3.20;;;2.60;;
577;SDS011;275;48.492;9.214;2023-04-24T07:48:40;3.88;;;2.90;;
577;SDS011;275;48.492;9.214;2023-04-24T07:51:07;3.63;;;2.38;;
577;SDS011;275;48.492;9.214;2023-04-24T07:53:35;4.90;;;2.70;;
577;SDS011;275;48.492;9.214;2023-04-24T07:56:02;3.43;;;1.90;;
577;SDS011;275;48.492;9.214;2023-04-24T07:58:30;3.25;;;2.50;;
577;SDS011;275;48.492;9.214;2023-04-24T08:00:56;2.97;;;2.08;;
577;SDS011;275;48.492;9.214;2023-04-24T08:03:23;4.10;;;2.03;;
577;SDS011;275;48.492;9.214;2023-04-24T08:05:50;4.80;;;1.77;;
577;SDS011;275;48.492;9.214;2023-04-24T08:08:17;3.57;;;2.00;;
577;SDS011;275;48.492;9.214;2023-04-24T08:10:44;2.53;;;1.67;;
577;SDS011;275;48.492;9.214;2023-04-24T08:13:11;3.07;;;1.70;;
577;SDS011;275;48.492;9.214;2023-04-24T08:15:39;3.40;;;1.80;;
577;SDS011;275;48.492;9.214;2023-04-24T08:18:06;3.20;;;2.03;;
577;SDS011;275;48.492;9.214;2023-04-24T08:20:34;4.17;;;1.97;;
577;SDS011;275;48.492;9.214;2023-04-24T08:23:01;3.30;;;1.77;;
577;SDS011;275;48.492;9.214;2023-04-24T08:25:28;3.17;;;1.77;;
577;SDS011;275;48.492;9.214;2023-04-24T08:27:55;3.23;;;2.07;;
577;SDS011;275;48.492;9.214;2023-04-24T08:30:22;5.00;;;1.97;;
577;SDS011;275;48.492;9.214;2023-04-24T08:32:50;2.90;;;1.60;;
577;SDS011;275;48.492;9.214;2023-04-24T08:35:17;2.90;;;1.80;;
577;SDS011;275;48.492;9.214;2023-04-24T08:37:44;5.47;;;2.07;;
577;SDS011;275;48.492;9.214;2023-04-24T08:40:12;5.70;;;1.97;;
577;SDS011;275;48.492;9.214;2023-04-24T08:42:41;3.47;;;2.00;;
577;SDS011;275;48.492;9.214;2023-04-24T08:45:09;3.63;;;2.00;;
577;SDS011;275;48.492;9.214;2023-04-24T08:47:37;4.15;;;2.17;;
577;SDS011;275;48.492;9.214;2023-04-24T08:50:07;3.60;;;2.00;;
577;SDS011;275;48.492;9.214;2023-04-24T08:52:35;6.88;;;4.15;;
577;SDS011;275;48.492;9.214;2023-04-24T08:55:01;3.95;;;2.65;;
577;SDS011;275;48.492;9.214;2023-04-24T08:57:29;6.20;;;2.53;;
577;SDS011;275;48.492;9.214;2023-04-24T08:59:57;3.55;;;2.08;;
577;SDS011;275;48.492;9.214;2023-04-24T09:02:24;6.50;;;2.30;;
577;SDS011;275;48.492;9.214;2023-04-24T09:04:52;5.85;;;1.95;;
577;SDS011;275;48.492;9.214;2023-04-24T09:07:20;3.35;;;2.35;;
577;SDS011;275;48.492;9.214;2023-04-24T09:09:50;3.63;;;2.10;;
577;SDS011;275;48.492;9.214;2023-04-24T09:12:18;4.10;;;2.47;;
577;SDS011;275;48.492;9.214;2023-04-24T09:14:45;5.43;;;3.77;;
577;SDS011;275;48.492;9.214;2023-04-24T09:17:14;4.43;;;2.30;;
577;SDS011;275;48.492;9.214;2023-04-24T09:19:40;3.93;;;2.10;;
577;SDS011;275;48.492;9.214;2023-04-24T09:22:08;5.50;;;2.43;;
577;SDS011;275;48.492;9.214;2023-04-24T09:24:37;3.10;;;2.17;;
577;SDS011;275;48.492;9.214;2023-04-24T09:27:05;4.00;;;1.80;;
577;SDS011;275;48.492;9.214;2023-04-24T09:29:32;3.33;;;1.70;;
577;SDS011;275;48.492;9.214;2023-04-24T09:31:59;5.10;;;2.80;;
577;SDS011;275;48.492;9.214;2023-04-24T09:34:44;4.00;;;2.27;;
577;SDS011;275;48.492;9.214;2023-04-24T09:37:15;4.80;;;2.20;;
577;SDS011;275;48.492;9.214;2023-04-24T09:40:08;4.43;;;1.80;;
577;SDS011;275;48.492;9.214;2023-04-24T09:42:36;3.00;;;1.90;;
577;SDS011;275;48.492;9.214;2023-04-24T09:45:04;3.10;;;1.80;;
577;SDS011;275;48.492;9.214;2023-04-24T09:47:35;3.27;;;2.00;;
577;SDS011;275;48.492;9.214;2023-04-24T09:50:08;4.82;;;2.80;;
577;SDS011;275;48.492;9.214;2023-04-24T09:52:39;6.27;;;3.17;;
577;SDS011;275;48.492;9.214;2023-04-24T09:55:11;5.10;;;2.07;;
577;SDS011;275;48.492;9.214;2023-04-24T09:57:52;5.97;;;2.63;;
577;SDS011;275;48.492;9.214;2023-04-24T10:00:21;3.80;;;2.13;;
577;SDS011;275;48.492;9.214;2023-04-24T10:02:50;3.60;;;1.77;;
577;SDS011;275;48.492;9.214;2023-04-24T10:05:18;3.73;;;1.73;;
577;SDS011;275;48.492;9.214;2023-04-24T10:07:45;3.97;;;1.70;;
577;SDS011;275;48.492;9.214;2023-04-24T10:10:14;4.13;;;1.57;;
577;SDS011;275;48.492;9.214;2023-04-24T10:12:41;3.00;;;1.70;;
577;SDS011;275;48.492;9.214;2023-04-24T10:15:09;4.10;;;2.03;;
577;SDS011;275;48.492;9.214;2023-04-24T10:17:39;4.37;;;2.73;;
577;SDS011;275;48.492;9.214;2023-04-24T10:20:06;3.60;;;2.13;;
577;SDS011;275;48.492;9.214;2023-04-24T10:22:34;3.60;;;1.77;;
577;SDS011;275;48.492;9.214;2023-04-24T10:25:03;2.80;;;1.70;;
577;SDS011;275;48.492;9.214;2023-04-24T10:27:33;5.27;;;2.10;;
577;SDS011;275;48.492;9.214;2023-04-24T10:30:01;3.33;;;1.83;;
577;SDS011;275;48.492;9.214;2023-04-24T10:32:29;5.03;;;1.87;;
577;SDS011;275;48.492;9.214;2023-04-24T10:34:56;4.43;;;2.10;;
577;SDS011;275;48.492;9.214;2023-04-24T10:37:23;4.57;;;2.87;;
577;SDS011;275;48.492;9.214;2023-04-24T10:39:51;3.47;;;1.93;;
577;SDS011;275;48.492;9.214;2023-04-24T10:42:19;3.60;;;1.60;;
577;SDS011;275;48.492;9.214;2023-04-24T10:44:48;3.13;;;1.67;;
577;SDS011;275;48.492;9.214;2023-04-24T10:47:15;3.40;;;1.50;;
577;SDS011;275;48.492;9.214;2023-04-24T10:49:42;3.40;;;1.60;;
577;SDS011;275;48.492;9.214;2023-04-24T10:52:09;2.80;;;1.57;;
577;SDS011;275;48.492;9.214;2023-04-24T10:54:41;3.30;;;1.80;;
577;SDS011;275;48.492;9.214;2023-04-24T10:57:25;4.30;;;2.67;;
577;SDS011;275;48.492;9.214;2023-04-24T11:02:48;3.27;;;1.43;;
577;SDS011;275;48.492;9.214;2023-04-24T11:05:17;3.10;;;1.50;;
577;SDS011;275;48.492;9.214;2023-04-24T11:10:38;2.87;;;1.67;;
577;SDS011;275;48.492;9.214;2023-04-24T11:13:10;4.70;;;1.97;;
577;SDS011;275;48.492;9.214;2023-04-24T11:15:41;3.57;;;1.77;;
577;SDS011;275;48.492;9.214;2023-04-24T11:18:13;3.67;;;1.53;;
577;SDS011;275;48.492;9.214;2023-04-24T11:20:42;3.53;;;1.80;;
577;SDS011;275;48.492;9.214;2023-04-24T11:23:09;3.80;;;1.90;;
577;SDS011;275;48.492;9.214;2023-04-24T11:25:39;3.23;;;1.10;;
577;SDS011;275;48.492;9.214;2023-04-24T11:28:07;3.00;;;1.47;;
577;SDS011;275;48.492;9.214;2023-04-24T11:30:40;2.70;;;1.30;;
577;SDS011;275;48.492;9.214;2023-04-24T11:33:07;3.23;;;1.30;;
577;SDS011;275;48.492;9.214;2023-04-24T11:35:38;2.57;;;1.40;;
577;SDS011;275;48.492;9.214;2023-04-24T11:38:06;3.77;;;1.57;;
577;SDS011;275;48.492;9.214;2023-04-24T11:40:33;4.77;;;3.30;;
577;SDS011;275;48.492;9.214;2023-04-24T11:43:00;3.40;;;2.27;;
577;SDS011;275;48.492;9.214;2023-04-24T11:45:27;2.83;;;1.30;;
577;SDS011;275;48.492;9.214;2023-04-24T11:47:56;5.73;;;1.53;;
577;SDS011;275;48.492;9.214;2023-04-24T11:50:24;3.53;;;1.57;;
577;SDS011;275;48.492;9.214;2023-04-24T11:52:54;6.00;;;1.60;;
577;SDS011;275;48.492;9.214;2023-04-24T11:55:25;3.10;;;1.40;;
577;SDS011;275;48.492;9.214;2023-04-24T11:57:53;3.30;;;1.93;;
577;SDS011;275;48.492;9.214;2023-04-24T12:00:23;5.20;;;2.60;;
577;SDS011;275;48.492;9.214;2023-04-24T12:02:51;4.40;;;2.53;;
577;SDS011;275;48.492;9.214;2023-04-24T12:05:29;3.40;;;1.33;;
577;SDS011;275;48.492;9.214;2023-04-24T12:07:58;2.70;;;1.20;;
577;SDS011;275;48.492;9.214;2023-04-24T12:10:25;2.70;;;1.17;;
577;SDS011;275;48.492;9.214;2023-04-24T12:12:54;4.03;;;1.50;;
577;SDS011;275;48.492;9.214;2023-04-24T12:15:23;4.13;;;1.40;;
577;SDS011;275;48.492;9.214;2023-04-24T12:17:50;2.70;;;1.37;;
577;SDS011;275;48.492;9.214;2023-04-24T12:20:22;4.13;;;1.80;;
577;SDS011;275;48.492;9.214;2023-04-24T12:22:51;3.03;;;1.20;;
577;SDS011;275;48.492;9.214;2023-04-24T12:25:22;2.83;;;1.87;;
577;SDS011;275;48.492;9.214;2023-04-24T12:27:52;2.70;;;1.70;;
577;SDS011;275;48.492;9.214;2023-04-24T12:30:20;3.20;;;1.50;;
577;SDS011;275;48.492;9.214;2023-04-24T12:32:48;2.77;;;1.10;;
577;SDS011;275;48.492;9.214;2023-04-24T12:35:18;3.27;;;1.27;;
577;SDS011;275;48.492;9.214;2023-04-24T12:37:46;3.93;;;1.13;;
577;SDS011;275;48.492;9.214;2023-04-24T12:40:14;3.37;;;2.10;;
577;SDS011;275;48.492;9.214;2023-04-24T12:42:45;3.23;;;1.63;;
577;SDS011;275;48.492;9.214;2023-04-24T12:45:13;3.80;;;2.53;;
577;SDS011;275;48.492;9.214;2023-04-24T12:47:41;2.67;;;1.57;;
577;SDS011;275;48.492;9.214;2023-04-24T12:50:09;5.67;;;2.37;;
577;SDS011;275;48.492;9.214;2023-04-24T12:52:37;3.27;;;1.70;;
577;SDS011;275;48.492;9.214;2023-04-24T12:55:05;4.10;;;1.43;;
577;SDS011;275;48.492;9.214;2023-04-24T12:57:34;3.27;;;1.90;;
577;SDS011;275;48.492;9.214;2023-04-24T13:00:04;3.37;;;2.00;;
577;SDS011;275;48.492;9.214;2023-04-24T13:02:32;5.87;;;2.87;;
577;SDS011;275;48.492;9.214;2023-04-24T13:05:00;4.17;;;2.30;;
577;SDS011;275;48.492;9.214;2023-04-24T13:07:27;2.90;;;1.37;;
577;SDS011;275;48.492;9.214;2023-04-24T13:09:54;3.00;;;1.70;;
577;SDS011;275;48.492;9.214;2023-04-24T13:12:22;2.90;;;2.10;;
577;SDS011;275;48.492;9.214;2023-04-24T13:14:50;2.80;;;1.57;;
577;SDS011;275;48.492;9.214;2023-04-24T13:17:18;3.10;;;1.90;;
577;SDS011;275;48.492;9.214;2023-04-24T13:19:45;3.07;;;1.93;;
577;SDS011;275;48.492;9.214;2023-04-24T13:22:12;4.67;;;3.27;;
577;SDS011;275;48.492;9.214;2023-04-24T13:24:39;3.40;;;2.23;;
577;SDS011;275;48.492;9.214;2023-04-24T13:27:06;4.40;;;2.10;;
577;SDS011;275;48.492;9.214;2023-04-24T13:29:34;3.10;;;1.40;;
577;SDS011;275;48.492;9.214;2023-04-24T13:32:01;3.33;;;2.00;;
577;SDS011;275;48.492;9.214;2023-04-24T13:34:29;5.10;;;2.10;;
577;SDS011;275;48.492;9.214;2023-04-24T13:36:57;3.17;;;1.73;;
577;SDS011;275;48.492;9.214;2023-04-24T13:39:24;3.57;;;2.37;;
577;SDS011;275;48.492;9.214;2023-04-24T13:41:51;4.67;;;1.80;;
577;SDS011;275;48.492;9.214;2023-04-24T13:44:19;3.20;;;1.80;;
577;SDS011;275;48.492;9.214;2023-04-24T13:46:48;3.03;;;2.00;;
577;SDS011;275;48.492;9.214;2023-04-24T13:49:16;2.93;;;1.70;;
577;SDS011;275;48.492;9.214;2023-04-24T13:51:45;5.00;;;2.13;;
577;SDS011;275;48.492;9.214;2023-04-24T13:54:12;3.63;;;3.13;;
577;SDS011;275;48.492;9.214;2023-04-24T13:56:40;4.40;;;2.43;;
577;SDS011;275;48.492;9.214;2023-04-24T13:59:07;3.83;;;2.00;;
577;SDS011;275;48.492;9.214;2023-04-24T14:01:34;4.00;;;1.73;;
577;SDS011;275;48.492;9.214;2023-04-24T14:04:01;3.60;;;1.57;;
577;SDS011;275;48.492;9.214;2023-04-24T14:06:28;2.73;;;1.37;;
577;SDS011;275;48.492;9.214;2023-04-24T14:08:57;6.13;;;1.80;;
577;SDS011;275;48.492;9.214;2023-04-24T14:11:24;3.70;;;1.57;;
577;SDS011;275;48.492;9.214;2023-04-24T14:13:53;3.50;;;1.70;;
577;SDS011;275;48.492;9.214;2023-04-24T14:16:21;3.27;;;1.80;;
577;SDS011;275;48.492;9.214;2023-04-24T14:18:48;3.50;;;1.50;;
577;SDS011;275;48.492;9.214;2023-04-24T14:21:15;3.70;;;1.80;;
577;SDS011;275;48.492;9.214;2023-04-24T14:23:42;3.10;;;1.67;;
577;SDS011;275;48.492;9.214;2023-04-24T14:26:10;3.70;;;1.73;;
577;SDS011;275;48.492;9.214;2023-04-24T14:28:37;3.00;;;1.70;;
577;SDS011;275;48.492;9.214;2023-04-24T14:31:04;3.93;;;1.97;;
577;SDS011;275;48.492;9.214;2023-04-24T14:33:31;2.80;;;1.77;;
577;SDS011;275;48.492;9.214;2023-04-24T14:35:58;3.40;;;2.03;;
577;SDS011;275;48.492;9.214;2023-04-24T14:38:27;3.53;;;1.73;;
577;SDS011;275;48.492;9.214;2023-04-24T14:40:54;3.40;;;2.13;;
577;SDS011;275;48.492;9.214;2023-04-24T14:43:23;4.67;;;1.93;;
577;SDS011;275;48.492;9.214;2023-04-24T14:45:50;4.20;;;1.97;;
577;SDS011;275;48.492;9.214;2023-04-24T14:48:17;2.97;;;1.83;;
577;SDS011;275;48.492;9.214;2023-04-24T14:50:43;3.37;;;1.80;;
577;SDS011;275;48.492;9.214;2023-04-24T14:53:10;3.17;;;1.50;;
577;SDS011;275;48.492;9.214;2023-04-24T14:55:37;3.37;;;2.20;;
577;SDS011;275;48.492;9.214;2023-04-24T14:58:04;4.13;;;2.17;;
577;SDS011;275;48.492;9.214;2023-04-24T15:00:32;3.40;;;2.03;;
577;SDS011;275;48.492;9.214;2023-04-24T15:03:00;3.00;;;1.77;;
577;SDS011;275;48.492;9.214;2023-04-24T15:05:26;3.67;;;2.10;;
577;SDS011;275;48.492;9.214;2023-04-24T15:07:53;4.77;;;1.80;;
577;SDS011;275;48.492;9.214;2023-04-24T15:10:20;4.27;;;2.30;;
577;SDS011;275;48.492;9.214;2023-04-24T15:12:48;3.00;;;2.33;;
577;SDS011;275;48.492;9.214;2023-04-24T15:15:14;3.83;;;2.27;;
577;SDS011;275;48.492;9.214;2023-04-24T15:17:43;4.23;;;2.50;;
577;SDS011;275;48.492;9.214;2023-04-24T15:20:10;4.50;;;2.17;;
577;SDS011;275;48.492;9.214;2023-04-24T15:22:37;5.37;;;2.43;;
577;SDS011;275;48.492;9.214;2023-04-24T15:25:04;4.13;;;2.47;;
577;SDS011;275;48.492;9.214;2023-04-24T15:27:38;3.60;;;1.90;;
577;SDS011;275;48.492;9.214;2023-04-24T15:30:07;2.97;;;2.00;;
577;SDS011;275;48.492;9.214;2023-04-24T15:32:35;4.87;;;2.50;;
577;SDS011;275;48.492;9.214;2023-04-24T15:35:03;3.97;;;2.50;;
577;SDS011;275;48.492;9.214;2023-04-24T15:37:30;4.27;;;2.10;;
577;SDS011;275;48.492;9.214;2023-04-24T15:39:57;3.03;;;1.70;;
577;SDS011;275;48.492;9.214;2023-04-24T15:42:25;3.73;;;1.90;;
577;SDS011;275;48.492;9.214;2023-04-24T15:44:52;3.13;;;1.83;;
577;SDS011;275;48.492;9.214;2023-04-24T15:47:19;2.50;;;1.53;;
577;SDS011;275;48.492;9.214;2023-04-24T15:49:46;2.80;;;1.60;;
577;SDS011;275;48.492;9.214;2023-04-24T15:52:14;4.07;;;1.97;;
577;SDS011;275;48.492;9.214;2023-04-24T15:54:41;2.93;;;1.97;;